Time;durP1;ratioP1;P1;durP2;ratioP2;P2;SDS_P1;SDS_P2;PMS_P1;PMS_P2;Temp;Humidity;BMP_temperature;BMP_pressure;BME280_temperature;BME280_humidity;BME280_pressure;Samples;Min_cycle;Max_cycle;Signal;HPM_P1;HPM_P2
2023/08/22 00:01:40;;;;;;;9.30;8.48;;;;;;;18.87;96.00;101878.28;5042793;28;20040;-70
2023/08/22 00:04:05;;;;;;;9.35;8.40;;;;;;;18.86;95.56;101873.88;5044360;28;20036;-70
2023/08/22 00:06:31;;;;;;;10.15;8.57;;;;;;;18.86;95.84;101866.63;5052954;28;20163;-70
2023/08/22 00:08:56;;;;;;;10.68;7.50;;;;;;;18.92;95.41;101868.03;5050790;28;20025;-70
2023/08/22 00:11:22;;;;;;;8.07;5.63;;;;;;;18.72;95.82;101861.31;5032205;28;20340;-70
2023/08/22 00:13:47;;;;;;;6.60;5.05;;;;;;;18.85;95.19;101869.41;5027750;28;20087;-70
2023/08/22 00:16:13;;;;;;;9.77;8.65;;;;;;;18.88;96.21;101872.78;5035960;28;20387;-69
2023/08/22 00:18:38;;;;;;;11.52;9.25;;;;;;;18.94;95.58;101873.34;5039351;28;20166;-70
2023/08/22 00:21:03;;;;;;;10.50;8.60;;;;;;;18.92;95.09;101868.03;5045625;28;20118;-70
2023/08/22 00:23:29;;;;;;;13.18;11.15;;;;;;;18.90;95.14;101868.16;5057375;28;20490;-69
2023/08/22 00:25:54;;;;;;;17.30;15.52;;;;;;;18.94;95.75;101870.63;5035800;28;20025;-69
2023/08/22 00:28:20;;;;;;;16.90;14.43;;;;;;;18.92;96.04;101868.88;5046253;28;20115;-69
2023/08/22 00:30:46;;;;;;;13.35;11.27;;;;;;;18.96;95.51;101874.09;5040137;28;20589;-70
2023/08/22 00:33:11;;;;;;;15.35;13.40;;;;;;;18.91;95.56;101861.78;5049447;28;20033;-69
2023/08/22 00:35:37;;;;;;;12.35;11.10;;;;;;;18.84;96.87;101873.94;5051518;28;20061;-70
2023/08/22 00:38:05;;;;;;;15.02;12.73;;;;;;;18.70;97.85;101868.66;5045340;28;20029;-71
2023/08/22 00:40:31;;;;;;;12.85;11.55;;;;;;;18.66;98.46;101869.81;5034950;28;20021;-70
2023/08/22 00:42:56;;;;;;;15.27;13.40;;;;;;;18.61;98.90;101864.72;5033290;28;20078;-70
2023/08/22 00:45:22;;;;;;;14.27;11.77;;;;;;;18.65;98.52;101860.00;5032423;28;20037;-70
2023/08/22 00:47:47;;;;;;;13.90;10.35;;;;;;;18.61;99.09;101858.47;5027639;28;20038;-69
2023/08/22 00:50:13;;;;;;;12.25;10.15;;;;;;;18.58;99.19;101862.25;5031427;28;20033;-69
2023/08/22 00:52:38;;;;;;;12.35;10.07;;;;;;;18.54;99.93;101849.06;5025763;28;20115;-70
2023/08/22 00:55:04;;;;;;;10.70;8.65;;;;;;;18.59;99.14;101857.72;5043270;28;20017;-69
2023/08/22 00:57:29;;;;;;;11.55;9.30;;;;;;;18.50;99.88;101847.56;5041706;28;20525;-71
2023/08/22 00:59:55;;;;;;;13.60;9.38;;;;;;;18.59;99.68;101845.09;5029652;28;20037;-70
2023/08/22 01:02:21;;;;;;;12.82;9.07;;;;;;;18.58;99.16;101840.66;5035097;28;20033;-71
2023/08/22 01:04:46;;;;;;;9.95;8.23;;;;;;;18.56;99.87;101845.31;5053884;28;20024;-69
2023/08/22 01:07:26;;;;;;;11.38;7.80;;;;;;;18.60;99.22;101838.75;5035378;28;20033;-70
2023/08/22 01:10:00;;;;;;;11.00;7.00;;;;;;;18.58;99.33;101839.81;5041395;28;20028;-70
2023/08/22 01:12:53;;;;;;;9.00;7.10;;;;;;;18.54;99.80;101838.28;5054331;28;20021;-70
2023/08/22 01:15:26;;;;;;;10.57;7.53;;;;;;;18.55;99.25;101829.22;5031656;28;20060;-71
2023/08/22 01:17:56;;;;;;;9.43;7.47;;;;;;;18.55;99.36;101842.72;5039616;28;20857;-68
2023/08/22 01:20:24;;;;;;;8.18;6.90;;;;;;;18.54;99.17;101844.53;5036255;28;20037;-70
2023/08/22 01:22:50;;;;;;;7.20;6.13;;;;;;;18.44;100.00;101834.50;5055487;28;20028;-69
2023/08/22 01:25:16;;;;;;;7.70;6.38;;;;;;;18.51;100.00;101842.06;5030649;28;20360;-70
2023/08/22 01:28:00;;;;;;;8.45;5.88;;;;;;;18.45;100.00;101849.72;5049225;28;20021;-69
2023/08/22 01:30:33;;;;;;;9.95;5.95;;;;;;;18.34;100.00;101834.25;5051730;28;20025;-69
2023/08/22 01:33:06;;;;;;;9.13;6.25;;;;;;;18.31;100.00;101842.53;5030077;28;20125;-70
2023/08/22 01:35:37;;;;;;;9.32;6.90;;;;;;;18.27;100.00;101825.75;5059825;28;20537;-70
2023/08/22 01:38:04;;;;;;;10.98;6.80;;;;;;;18.23;100.00;101828.75;5043925;28;20066;-70
2023/08/22 01:40:31;;;;;;;9.32;7.10;;;;;;;18.18;100.00;101823.63;5042463;28;20075;-70
2023/08/22 01:42:56;;;;;;;8.07;6.68;;;;;;;18.19;100.00;101822.69;5043707;28;20060;-69
2023/08/22 01:45:22;;;;;;;8.98;6.40;;;;;;;18.13;100.00;101815.88;5049148;28;20154;-70
2023/08/22 01:47:47;;;;;;;12.30;6.75;;;;;;;18.16;100.00;101830.97;5043981;28;20032;-70
2023/08/22 01:50:13;;;;;;;7.20;5.80;;;;;;;18.07;100.00;101818.13;5046366;28;20493;-69
2023/08/22 01:52:38;;;;;;;10.30;6.47;;;;;;;18.02;100.00;101817.59;5053074;28;20028;-70
2023/08/22 01:55:04;;;;;;;6.97;6.20;;;;;;;18.06;100.00;101819.97;5047150;28;20411;-69
2023/08/22 01:57:29;;;;;;;11.68;6.45;;;;;;;18.03;100.00;101820.16;5044942;28;20485;-70
2023/08/22 01:59:55;;;;;;;7.72;6.22;;;;;;;18.06;100.00;101832.56;5036817;28;20095;-69
2023/08/22 02:02:21;;;;;;;8.27;6.07;;;;;;;18.10;100.00;101825.97;5033551;28;20430;-70
2023/08/22 02:04:46;;;;;;;8.63;6.18;;;;;;;18.07;100.00;101827.06;5037159;28;20021;-70
2023/08/22 02:07:11;;;;;;;6.72;5.97;;;;;;;18.09;100.00;101824.25;5042638;28;20032;-70
2023/08/22 02:09:37;;;;;;;10.10;6.53;;;;;;;18.09;100.00;101824.25;5039659;28;20471;-70
2023/08/22 02:12:02;;;;;;;7.88;5.97;;;;;;;18.06;100.00;101828.06;5034108;28;20533;-69
2023/08/22 02:14:28;;;;;;;10.73;6.35;;;;;;;18.04;100.00;101831.81;5042714;28;20562;-69
2023/08/22 02:16:55;;;;;;;7.40;6.50;;;;;;;18.11;100.00;101827.75;5024053;28;20476;-70
2023/08/22 02:19:20;;;;;;;7.50;6.03;;;;;;;18.06;100.00;101814.56;5029475;28;20030;-70
2023/08/22 02:21:46;;;;;;;9.70;6.57;;;;;;;18.06;100.00;101819.09;5039517;28;20040;-69
2023/08/22 02:24:11;;;;;;;7.88;6.07;;;;;;;18.04;100.00;101821.88;5025611;28;20037;-70
2023/08/22 02:26:37;;;;;;;8.82;6.43;;;;;;;18.03;100.00;101813.91;5027101;28;20079;-70
2023/08/22 02:29:03;;;;;;;8.25;6.18;;;;;;;18.06;100.00;101816.41;5040507;28;20037;-70
2023/08/22 02:31:28;;;;;;;7.10;6.40;;;;;;;18.07;100.00;101812.75;5052754;28;20291;-71
2023/08/22 02:33:54;;;;;;;9.20;6.43;;;;;;;18.09;100.00;101808.09;5052047;28;20024;-70
2023/08/22 02:36:19;;;;;;;9.10;6.03;;;;;;;18.07;100.00;101808.22;5040789;28;20480;-70
2023/08/22 02:38:45;;;;;;;11.52;6.93;;;;;;;18.08;100.00;101806.38;5047636;28;20622;-69
2023/08/22 02:41:10;;;;;;;8.88;6.20;;;;;;;18.08;100.00;101806.38;5045185;28;20052;-70
2023/08/22 02:43:36;;;;;;;9.10;6.43;;;;;;;18.05;100.00;101807.44;5042424;28;20182;-69
2023/08/22 02:46:01;;;;;;;8.50;6.03;;;;;;;18.06;100.00;101805.63;5041103;28;20481;-69
2023/08/22 02:48:27;;;;;;;8.77;6.70;;;;;;;17.98;100.00;101803.44;5046788;28;20376;-69
2023/08/22 02:50:52;;;;;;;8.60;6.40;;;;;;;17.95;100.00;101802.78;5052394;28;20562;-69
2023/08/22 02:53:17;;;;;;;11.07;7.30;;;;;;;17.95;100.00;101809.03;5057210;28;20112;-69
2023/08/22 02:55:47;;;;;;;8.48;7.00;;;;;;;17.94;100.00;101807.31;5022713;28;20522;-71
2023/08/22 02:58:12;;;;;;;8.38;6.20;;;;;;;17.92;100.00;101796.63;5045815;28;20505;-71
2023/08/22 03:00:38;;;;;;;8.73;6.65;;;;;;;17.90;100.00;101803.97;5038945;28;20025;-70
2023/08/22 03:03:06;;;;;;;8.90;6.63;;;;;;;17.93;100.00;101802.88;5049446;28;20384;-70
2023/08/22 03:05:31;;;;;;;10.07;6.80;;;;;;;17.90;100.00;101803.97;5031433;28;20479;-71
2023/08/22 03:07:57;;;;;;;8.23;7.00;;;;;;;17.89;100.00;101802.22;5040658;28;20090;-68
2023/08/22 03:10:22;;;;;;;8.25;6.95;;;;;;;17.88;100.00;101797.78;5042772;28;20398;-69
2023/08/22 03:12:50;;;;;;;7.90;7.10;;;;;;;17.89;100.00;101795.97;5039105;28;20040;-69
2023/08/22 03:15:15;;;;;;;10.57;7.07;;;;;;;17.95;100.00;101800.09;5034991;28;20056;-70
2023/08/22 03:17:41;;;;;;;10.27;7.22;;;;;;;17.92;100.00;101798.44;5041801;28;20467;-69
2023/08/22 03:20:07;;;;;;;8.98;6.80;;;;;;;17.87;100.00;101798.75;5031397;28;20475;-69
2023/08/22 03:22:32;;;;;;;8.18;6.50;;;;;;;17.75;100.00;101802.25;5049323;28;20105;-69
2023/08/22 03:24:58;;;;;;;7.95;6.43;;;;;;;17.72;100.00;101805.13;5030570;28;20033;-69
2023/08/22 03:27:23;;;;;;;9.07;6.47;;;;;;;17.65;100.00;101810.06;5048094;28;20030;-70
2023/08/22 03:29:49;;;;;;;8.65;6.80;;;;;;;17.61;100.00;101807.66;5045842;28;20119;-70
2023/08/22 03:32:15;;;;;;;8.70;6.60;;;;;;;17.59;100.00;101796.97;5051347;28;20039;-69
2023/08/22 03:34:40;;;;;;;9.35;6.60;;;;;;;17.60;100.00;101801.44;5041607;28;20398;-69
2023/08/22 03:37:05;;;;;;;8.80;6.60;;;;;;;17.59;100.00;101796.97;5034319;28;20021;-69
2023/08/22 03:39:30;;;;;;;8.27;6.70;;;;;;;17.48;100.00;101794.16;5040107;28;20027;-69
2023/08/22 03:41:56;;;;;;;8.73;6.60;;;;;;;17.42;100.00;101798.06;5038706;28;20021;-70
2023/08/22 03:44:21;;;;;;;8.68;7.10;;;;;;;17.40;100.00;101804.53;5037793;28;20022;-69
2023/08/22 03:46:47;;;;;;;7.65;6.55;;;;;;;17.40;100.00;101804.53;5040356;28;20190;-69
2023/08/22 03:49:13;;;;;;;11.07;6.95;;;;;;;17.36;100.00;101803.00;5037165;28;20177;-71
2023/08/22 03:51:38;;;;;;;8.27;6.65;;;;;;;17.32;100.00;101796.94;5030762;28;20373;-70
2023/08/22 03:54:04;;;;;;;8.15;6.72;;;;;;;17.22;100.00;101800.31;5044676;28;20063;-70
2023/08/22 03:56:29;;;;;;;9.52;6.93;;;;;;;17.22;100.00;101800.31;5048200;28;20170;-70
2023/08/22 03:58:55;;;;;;;7.32;6.38;;;;;;;17.17;100.00;101798.78;5039707;28;20701;-69
2023/08/22 04:01:20;;;;;;;8.05;6.32;;;;;;;17.15;100.00;101799.88;5046299;28;20479;-69
2023/08/22 04:03:45;;;;;;;8.82;6.20;;;;;;;17.15;100.00;101794.47;5051163;28;20041;-69
2023/08/22 04:06:11;;;;;;;8.27;6.93;;;;;;;17.14;100.00;101790.94;5039303;28;20554;-69
2023/08/22 04:08:36;;;;;;;9.52;6.57;;;;;;;17.10;100.00;101794.78;5047836;28;20025;-70
2023/08/22 04:11:01;;;;;;;9.95;6.78;;;;;;;17.09;100.00;101794.84;5039659;28;20466;-70
2023/08/22 04:13:27;;;;;;;9.13;7.13;;;;;;;17.05;100.00;101791.47;5044715;28;20381;-70
2023/08/22 04:15:52;;;;;;;11.90;6.82;;;;;;;17.04;100.00;101799.66;5058244;28;20037;-69
2023/08/22 04:18:17;;;;;;;9.60;6.35;;;;;;;17.00;100.00;101798.13;5061874;28;20024;-70
2023/08/22 04:20:43;;;;;;;8.75;6.60;;;;;;;16.94;100.00;101804.75;5055103;28;20524;-69
2023/08/22 04:23:09;;;;;;;8.32;6.57;;;;;;;16.89;100.00;101801.50;5036883;28;20033;-69
2023/08/22 04:25:35;;;;;;;8.55;6.47;;;;;;;16.86;100.00;101794.47;5036531;28;20233;-70
2023/08/22 04:28:00;;;;;;;8.50;6.25;;;;;;;16.86;100.00;101799.00;5038195;28;20483;-68
2023/08/22 04:30:26;;;;;;;10.18;6.45;;;;;;;16.81;100.00;101795.72;5047003;28;20032;-69
2023/08/22 04:32:51;;;;;;;8.07;6.18;;;;;;;16.75;100.00;101791.59;5056400;28;20071;-69
2023/08/22 04:35:17;;;;;;;8.80;5.95;;;;;;;16.79;100.00;101792.25;5049131;28;20043;-69
2023/08/22 04:37:42;;;;;;;10.18;6.25;;;;;;;16.75;100.00;101796.09;5043627;28;20025;-70
2023/08/22 04:40:08;;;;;;;7.45;5.90;;;;;;;16.76;100.00;101804.09;5041777;28;20298;-69
2023/08/22 04:42:34;;;;;;;7.22;5.63;;;;;;;16.71;100.00;101798.06;5047575;28;20023;-70
2023/08/22 04:45:00;;;;;;;6.97;5.88;;;;;;;16.66;100.00;101797.50;5048948;28;20096;-69
2023/08/22 04:47:25;;;;;;;7.85;5.80;;;;;;;16.69;100.00;101794.63;5041078;28;20491;-69
2023/08/22 04:49:50;;;;;;;10.90;6.35;;;;;;;16.68;100.00;101795.59;5039933;28;20029;-69
2023/08/22 04:52:16;;;;;;;10.75;6.68;;;;;;;16.69;100.00;101802.69;5027340;28;20041;-69
2023/08/22 04:54:42;;;;;;;11.23;6.38;;;;;;;16.64;100.00;101802.97;5035773;28;20021;-69
2023/08/22 04:57:07;;;;;;;9.23;6.10;;;;;;;16.64;100.00;101802.13;5051794;28;20031;-69
2023/08/22 04:59:34;;;;;;;14.00;7.25;;;;;;;16.64;100.00;101796.75;5043477;28;20025;-69
2023/08/22 05:01:59;;;;;;;12.57;6.95;;;;;;;16.66;100.00;101800.19;5046619;28;20191;-69
2023/08/22 05:04:24;;;;;;;11.70;6.82;;;;;;;16.67;100.00;101799.22;5037815;28;20032;-69
2023/08/22 05:06:50;;;;;;;9.50;6.45;;;;;;;16.65;100.00;101796.63;5029076;28;20135;-69
2023/08/22 05:09:16;;;;;;;11.68;7.88;;;;;;;16.69;100.00;101808.06;5044436;28;20036;-69
2023/08/22 05:11:42;;;;;;;11.50;8.50;;;;;;;16.68;100.00;101804.53;5040000;28;20020;-70
2023/08/22 05:14:11;;;;;;;10.30;7.28;;;;;;;16.68;100.00;101811.72;5031768;28;20137;-70
2023/08/22 05:16:38;;;;;;;14.35;7.43;;;;;;;16.68;100.00;101806.34;5050406;28;20092;-70
2023/08/22 05:19:04;;;;;;;14.25;7.20;;;;;;;16.70;100.00;101804.41;5028447;28;20040;-70
2023/08/22 05:21:30;;;;;;;12.98;7.78;;;;;;;16.68;100.00;101799.16;5049191;28;20119;-69
2023/08/22 05:23:55;;;;;;;11.02;7.50;;;;;;;16.78;100.00;101799.47;5053303;28;20120;-70
2023/08/22 05:26:20;;;;;;;11.02;7.70;;;;;;;16.79;100.00;101805.69;5036974;28;20115;-70
2023/08/22 05:28:46;;;;;;;13.18;8.10;;;;;;;16.81;100.00;101795.72;5051968;28;20070;-70
2023/08/22 05:31:24;;;;;;;12.52;8.55;;;;;;;16.88;100.00;101797.91;5035483;28;20026;-70
2023/08/22 05:33:50;;;;;;;11.15;7.72;;;;;;;16.89;100.00;101798.81;5032340;28;20028;-69
2023/08/22 05:36:16;;;;;;;10.57;7.95;;;;;;;16.97;100.00;101806.38;5044373;28;20029;-70
2023/08/22 05:38:41;;;;;;;10.68;7.03;;;;;;;16.97;100.00;101801.00;5029913;28;20621;-69
2023/08/22 05:41:07;;;;;;;8.90;7.45;;;;;;;17.06;100.00;101800.44;5043813;28;20029;-69
2023/08/22 05:43:32;;;;;;;8.52;6.60;;;;;;;17.29;100.00;101798.97;5034033;28;20040;-69
2023/08/22 05:45:58;;;;;;;9.65;6.90;;;;;;;17.45;100.00;101798.84;5050875;28;20021;-69
2023/08/22 05:48:23;;;;;;;11.15;7.38;;;;;;;17.65;100.00;101793.91;5051076;28;20622;-68
2023/08/22 05:50:50;;;;;;;10.05;7.68;;;;;;;17.86;100.00;101796.19;5048193;28;20830;-70
2023/08/22 05:53:15;;;;;;;12.77;8.45;;;;;;;17.95;100.00;101789.31;5045705;28;20027;-70
2023/08/22 05:55:41;;;;;;;11.27;8.43;;;;;;;18.27;100.00;101792.53;5042741;28;20021;-70
2023/08/22 05:58:06;;;;;;;11.00;8.68;;;;;;;18.46;100.00;101778.66;5045176;28;20021;-70
2023/08/22 06:00:32;;;;;;;14.68;9.40;;;;;;;18.74;100.00;101794.66;5025399;28;20030;-70
2023/08/22 06:02:57;;;;;;;13.75;10.50;;;;;;;18.91;100.00;101797.03;5038448;28;20022;-70
2023/08/22 06:05:22;;;;;;;12.15;9.80;;;;;;;19.15;100.00;101807.91;5040475;28;20101;-70
2023/08/22 06:07:48;;;;;;;13.35;9.80;;;;;;;19.37;100.00;101807.22;5049650;28;20056;-70
2023/08/22 06:10:13;;;;;;;13.15;9.93;;;;;;;19.61;100.00;101815.41;5052997;28;20020;-70
2023/08/22 06:12:39;;;;;;;13.00;9.55;;;;;;;19.84;99.00;101812.84;5034878;28;20545;-70
2023/08/22 06:15:05;;;;;;;12.45;9.30;;;;;;;20.01;99.50;101815.13;5049079;28;20391;-70
2023/08/22 06:17:31;;;;;;;13.10;9.05;;;;;;;20.20;98.85;101817.31;5049343;28;20141;-70
2023/08/22 06:19:56;;;;;;;16.30;10.85;;;;;;;20.36;96.30;101808.91;5047791;28;20764;-69
2023/08/22 06:22:22;;;;;;;10.88;9.00;;;;;;;20.48;94.70;101821.47;5039842;28;20387;-70
2023/08/22 06:24:47;;;;;;;11.70;8.98;;;;;;;20.53;92.25;101821.16;5043179;28;20118;-70
2023/08/22 06:27:12;;;;;;;10.20;8.10;;;;;;;20.62;92.13;101821.28;5042736;28;20083;-71
2023/08/22 06:29:37;;;;;;;12.98;8.27;;;;;;;20.68;91.35;101825.34;5054095;28;20024;-70
2023/08/22 06:32:03;;;;;;;10.23;8.15;;;;;;;20.85;90.09;101821.31;5049220;28;20029;-70
2023/08/22 06:34:30;;;;;;;11.75;9.13;;;;;;;21.02;89.80;101823.53;5036045;28;20115;-70
2023/08/22 06:36:56;;;;;;;11.43;8.70;;;;;;;21.25;87.63;101829.84;5036561;28;20567;-70
2023/08/22 06:39:22;;;;;;;11.32;8.07;;;;;;;21.48;85.98;101829.84;5050538;28;20153;-70
2023/08/22 06:41:47;;;;;;;10.07;7.88;;;;;;;21.58;85.99;101825.41;5037969;28;20013;-69
2023/08/22 06:44:12;;;;;;;12.15;8.00;;;;;;;21.70;86.28;101821.72;5028514;28;20108;-69
2023/08/22 06:46:38;;;;;;;12.23;7.72;;;;;;;21.75;85.51;101827.59;5036668;28;20060;-69
2023/08/22 06:49:03;;;;;;;10.00;6.72;;;;;;;21.96;85.64;101821.38;5038866;28;20456;-69
2023/08/22 06:51:30;;;;;;;12.27;7.63;;;;;;;22.25;81.84;101825.25;5047909;28;20040;-70
2023/08/22 06:53:55;;;;;;;16.38;8.20;;;;;;;22.38;82.13;101831.34;5052793;28;20025;-71
2023/08/22 06:56:20;;;;;;;9.40;6.32;;;;;;;22.66;79.46;101834.41;5029494;28;20021;-70
2023/08/22 06:58:46;;;;;;;10.68;6.38;;;;;;;22.75;79.53;101833.59;5055642;28;20032;-71
2023/08/22 07:01:13;;;;;;;10.20;6.43;;;;;;;22.64;76.13;101833.66;5045502;28;20395;-70
2023/08/22 07:03:38;;;;;;;8.40;5.85;;;;;;;22.51;76.35;101839.28;5049927;28;20036;-71
2023/08/22 07:06:04;;;;;;;7.35;5.30;;;;;;;22.55;78.90;101839.91;5043593;28;20517;-71
2023/08/22 07:08:29;;;;;;;8.82;5.50;;;;;;;22.77;78.69;101857.88;5041145;28;20041;-71
2023/08/22 07:11:04;;;;;;;9.13;5.38;;;;;;;23.26;74.95;101857.22;5049267;28;20077;-71
2023/08/22 07:13:31;;;;;;;8.65;5.70;;;;;;;23.63;75.06;101853.91;5040506;28;20031;-71
2023/08/22 07:15:56;;;;;;;10.43;5.35;;;;;;;24.01;71.63;101849.59;5048789;28;20021;-71
2023/08/22 07:18:21;;;;;;;10.43;5.55;;;;;;;24.21;70.31;101851.34;5052880;28;20109;-71
2023/08/22 07:20:49;;;;;;;12.13;6.90;;;;;;;24.41;68.55;101843.19;5034876;28;20033;-71
2023/08/22 07:23:14;;;;;;;9.35;7.93;;;;;;;24.60;68.18;101864.94;5031909;28;20437;-71
2023/08/22 07:25:40;;;;;;;10.25;6.60;;;;;;;24.35;67.85;101859.06;5044078;28;20036;-71
2023/08/22 07:28:05;;;;;;;7.00;5.70;;;;;;;24.22;68.53;101861.22;5040094;28;20030;-70
2023/08/22 07:30:32;;;;;;;11.20;6.20;;;;;;;24.45;68.29;101859.06;5052377;28;20041;-71
2023/08/22 07:32:58;;;;;;;9.75;5.80;;;;;;;25.08;66.34;101862.19;5040022;28;20547;-71
2023/08/22 07:35:24;;;;;;;11.10;6.45;;;;;;;25.38;63.14;101859.34;5033914;28;20033;-71
2023/08/22 07:37:49;;;;;;;9.48;5.18;;;;;;;25.96;62.35;101861.75;5039923;28;20025;-70
2023/08/22 07:40:16;;;;;;;6.65;4.68;;;;;;;26.47;59.80;101863.00;5046704;28;20470;-71
2023/08/22 07:42:42;;;;;;;8.55;5.18;;;;;;;27.00;55.78;101862.00;5045527;28;20024;-72
2023/08/22 07:45:08;;;;;;;8.45;5.40;;;;;;;27.30;54.76;101856.09;5036418;28;20048;-71
2023/08/22 07:47:33;;;;;;;9.07;5.32;;;;;;;27.77;54.24;101852.88;5042990;28;20025;-69
2023/08/22 07:49:58;;;;;;;9.63;7.93;;;;;;;27.90;51.55;101862.50;5051760;28;20375;-69
2023/08/22 07:52:24;;;;;;;8.95;6.40;;;;;;;27.65;51.29;101867.00;5062271;28;20036;-70
2023/08/22 07:54:49;;;;;;;10.48;6.78;;;;;;;27.19;53.00;101870.03;5038190;28;20028;-70
2023/08/22 07:57:14;;;;;;;10.32;7.20;;;;;;;27.00;53.30;101867.47;5055652;28;20073;-71
2023/08/22 07:59:40;;;;;;;8.98;5.28;;;;;;;26.85;52.33;101869.09;5036767;28;20032;-71
2023/08/22 08:02:05;;;;;;;10.93;5.20;;;;;;;26.44;54.25;101869.63;5039372;28;20029;-71
2023/08/22 08:04:31;;;;;;;8.05;5.45;;;;;;;26.19;53.68;101868.50;5040444;28;20048;-70
2023/08/22 08:06:56;;;;;;;8.20;4.93;;;;;;;25.94;54.53;101872.84;5047852;28;20070;-71
2023/08/22 08:09:22;;;;;;;8.05;5.80;;;;;;;25.58;54.41;101870.00;5042293;28;20033;-70
2023/08/22 08:11:47;;;;;;;7.22;4.88;;;;;;;25.35;55.86;101868.66;5049217;28;20324;-71
2023/08/22 08:14:13;;;;;;;10.93;5.22;;;;;;;25.24;56.76;101877.03;5040107;28;20031;-71
2023/08/22 08:16:38;;;;;;;7.75;5.93;;;;;;;25.11;57.65;101876.50;5047040;28;20048;-71
2023/08/22 08:19:05;;;;;;;10.68;7.15;;;;;;;25.02;57.83;101883.66;5038468;28;20648;-71
2023/08/22 08:21:30;;;;;;;12.00;7.88;;;;;;;24.97;58.32;101880.53;5045542;28;20040;-71
2023/08/22 08:23:55;;;;;;;11.05;7.97;;;;;;;24.96;58.98;101876.09;5052644;28;20081;-70
2023/08/22 08:26:21;;;;;;;10.18;6.75;;;;;;;24.97;60.33;101881.38;5045424;28;20024;-70
2023/08/22 08:28:46;;;;;;;12.57;8.23;;;;;;;24.84;59.52;101880.84;5039432;28;20020;-69
2023/08/22 08:31:12;;;;;;;17.70;8.65;;;;;;;24.64;60.57;101881.88;5047595;28;20020;-70
2023/08/22 08:33:37;;;;;;;11.88;8.43;;;;;;;24.63;60.66;101878.28;5045152;28;20044;-69
2023/08/22 08:36:04;;;;;;;11.63;8.60;;;;;;;24.66;61.05;101888.84;5027779;28;20021;-70
2023/08/22 08:38:29;;;;;;;12.75;8.00;;;;;;;24.72;61.43;101888.28;5052828;28;20035;-69
2023/08/22 08:40:59;;;;;;;11.52;7.93;;;;;;;24.75;60.11;101888.03;5049899;28;20028;-70
2023/08/22 08:43:25;;;;;;;11.02;8.65;;;;;;;24.66;59.36;101888.84;5039472;28;20469;-69
2023/08/22 08:45:51;;;;;;;10.95;8.23;;;;;;;24.65;59.93;101887.16;5049776;28;20519;-70
2023/08/22 08:48:17;;;;;;;11.95;7.95;;;;;;;24.81;59.43;101883.84;5064001;28;20033;-69
2023/08/22 08:50:43;;;;;;;9.43;7.68;;;;;;;24.91;58.49;101881.94;5047601;28;20071;-70
2023/08/22 08:53:09;;;;;;;8.85;7.07;;;;;;;24.87;58.86;101893.28;5050812;28;20044;-71
2023/08/22 08:55:35;;;;;;;12.40;7.38;;;;;;;24.94;58.72;101883.53;5042423;28;20028;-70
2023/08/22 08:58:01;;;;;;;10.90;8.10;;;;;;;25.18;58.32;101881.22;5050358;28;20108;-69
2023/08/22 09:00:27;;;;;;;14.27;8.80;;;;;;;25.42;56.90;101885.28;5038876;28;20021;-69
2023/08/22 09:02:53;;;;;;;13.50;7.97;;;;;;;25.82;56.75;101877.63;5052580;28;20078;-70
2023/08/22 09:05:21;;;;;;;11.75;8.15;;;;;;;26.40;55.20;101873.63;5035235;28;20041;-70
2023/08/22 09:07:46;;;;;;;14.15;8.43;;;;;;;27.22;52.98;101866.13;5050336;28;20028;-69
2023/08/22 09:10:12;;;;;;;11.38;7.65;;;;;;;27.85;50.42;101873.94;5055928;28;20043;-68
2023/08/22 09:12:38;;;;;;;15.10;7.70;;;;;;;27.66;50.71;101874.19;5042470;28;20055;-68
2023/08/22 09:15:18;;;;;;;13.88;8.07;;;;;;;27.15;52.82;101884.19;5041770;28;20076;-69
2023/08/22 09:17:43;;;;;;;11.95;7.72;;;;;;;26.87;52.69;101875.25;5052157;28;20118;-69
2023/08/22 09:20:10;;;;;;;10.48;7.40;;;;;;;26.65;53.10;101879.34;5043919;28;20029;-70
2023/08/22 09:22:35;;;;;;;9.15;6.63;;;;;;;26.50;53.56;101882.66;5041976;28;20032;-70
2023/08/22 09:25:04;;;;;;;10.80;7.03;;;;;;;26.30;53.91;101884.66;5041432;28;20040;-70
2023/08/22 09:27:29;;;;;;;11.30;7.65;;;;;;;26.19;54.14;101889.47;5042667;28;20017;-71
2023/08/22 09:30:04;;;;;;;15.77;8.45;;;;;;;26.24;54.43;101896.16;5041702;28;20352;-70
2023/08/22 09:32:30;;;;;;;16.25;8.02;;;;;;;26.20;54.58;101894.75;5061825;28;20121;-71
2023/08/22 09:34:58;;;;;;;9.30;6.57;;;;;;;26.23;55.47;101885.41;5035595;28;20111;-72
2023/08/22 09:37:36;;;;;;;12.05;7.38;;;;;;;26.39;55.08;101885.56;5055019;28;20029;-70
2023/08/22 09:40:07;;;;;;;14.63;7.70;;;;;;;26.32;56.17;101879.03;5043746;28;20063;-70
2023/08/22 09:42:37;;;;;;;11.45;8.05;;;;;;;26.22;53.86;101878.25;5034468;28;20016;-70
2023/08/22 09:45:07;;;;;;;12.02;7.95;;;;;;;25.88;55.43;101878.91;5038327;28;20056;-69
2023/08/22 09:47:39;;;;;;;10.93;6.53;;;;;;;26.02;57.03;101883.84;5041213;28;20537;-70
2023/08/22 09:50:09;;;;;;;12.93;7.18;;;;;;;26.32;55.66;101885.34;5040761;28;20227;-70
2023/08/22 09:52:36;;;;;;;10.55;7.40;;;;;;;27.07;53.35;101887.69;5044201;28;20491;-69
2023/08/22 09:55:02;;;;;;;9.23;6.70;;;;;;;28.41;51.43;101891.53;5037335;28;20029;-69
2023/08/22 09:57:29;;;;;;;9.60;6.82;;;;;;;28.94;47.78;101895.63;5041844;28;20022;-69
2023/08/22 09:59:55;;;;;;;9.30;7.55;;;;;;;28.67;47.78;101895.97;5047400;28;20032;-69
2023/08/22 10:02:21;;;;;;;10.20;6.55;;;;;;;28.71;47.88;101908.31;5050877;28;20312;-69
2023/08/22 10:04:47;;;;;;;9.48;6.10;;;;;;;28.99;47.25;101912.44;5049549;28;20459;-69
2023/08/22 10:07:12;;;;;;;9.35;6.03;;;;;;;29.61;46.24;101908.22;5049045;28;20033;-68
2023/08/22 10:09:39;;;;;;;10.45;6.80;;;;;;;30.26;44.36;101908.72;5042526;28;20120;-69
2023/08/22 10:12:09;;;;;;;9.68;6.60;;;;;;;29.60;45.16;101907.38;5043859;28;20029;-69
2023/08/22 10:14:42;;;;;;;10.15;6.18;;;;;;;28.75;47.45;101899.56;5056970;28;20332;-69
2023/08/22 10:17:13;;;;;;;8.73;5.82;;;;;;;28.36;48.94;101898.53;5049551;28;20133;-69
2023/08/22 10:19:38;;;;;;;9.65;6.20;;;;;;;28.11;48.41;101897.63;5043629;28;20334;-67
2023/08/22 10:22:09;;;;;;;8.25;5.72;;;;;;;27.94;49.65;101893.97;5030831;28;20029;-68
2023/08/22 10:24:38;;;;;;;7.38;5.43;;;;;;;28.11;48.86;101889.41;5038021;28;20032;-69
2023/08/22 10:27:16;;;;;;;8.18;5.72;;;;;;;28.27;48.99;101884.81;5041518;28;20032;-69
2023/08/22 10:29:47;;;;;;;11.35;6.05;;;;;;;27.73;48.62;101881.59;5041175;28;20025;-70
2023/08/22 10:32:20;;;;;;;8.23;5.38;;;;;;;27.51;48.99;101895.84;5034475;28;20020;-69
2023/08/22 10:34:45;;;;;;;;;;;;;;;28.19;48.68;101892.16;5047757;28;20171;-70
2023/08/22 10:37:20;;;;;;;10.30;5.53;;;;;;;28.37;46.94;101901.09;5045206;28;20003;-70
2023/08/22 10:39:49;;;;;;;7.05;4.57;;;;;;;28.61;46.22;101889.31;5042007;28;20391;-71
2023/08/22 10:42:18;;;;;;;7.15;4.60;;;;;;;28.51;46.32;101885.91;5043246;28;20037;-70
2023/08/22 10:44:54;;;;;;;8.63;5.40;;;;;;;29.19;45.79;101892.88;5029047;28;20035;-71
2023/08/22 10:47:33;;;;;;;5.90;4.38;;;;;;;30.45;44.26;101881.84;5033911;28;20279;-70
2023/08/22 10:50:00;;;;;;;6.75;4.10;;;;;;;30.70;41.45;101883.34;5046832;28;20227;-70
2023/08/22 10:52:37;;;;;;;6.32;3.95;;;;;;;31.72;40.37;101880.03;5046679;28;20098;-70
2023/08/22 10:55:03;;;;;;;6.50;3.50;;;;;;;32.17;36.46;101878.03;5036073;28;20526;-70
2023/08/22 10:57:41;;;;;;;7.40;4.03;;;;;;;32.18;37.15;101880.59;5035248;28;20064;-69
2023/08/22 11:00:21;;;;;;;8.60;3.42;;;;;;;32.01;36.89;101884.66;5042378;28;20028;-70
2023/08/22 11:02:51;;;;;;;6.25;3.05;;;;;;;32.65;36.45;101886.63;5034073;28;20149;-70
2023/08/22 11:05:17;;;;;;;6.10;3.22;;;;;;;33.93;33.91;101888.91;5045353;28;20154;-69
2023/08/22 11:07:46;;;;;;;3.55;2.30;;;;;;;34.56;31.09;101896.97;5039246;28;20546;-70
2023/08/22 11:10:15;;;;;;;4.63;2.55;;;;;;;34.36;32.06;101887.78;5036590;28;20032;-68
2023/08/22 11:12:41;;;;;;;4.55;3.00;;;;;;;33.87;33.05;101887.00;5036419;28;20025;-69
2023/08/22 11:15:07;;;;;;;6.00;3.30;;;;;;;33.33;33.16;101873.13;5051166;28;20055;-69